createdAt,value
2022-09-04T00:01:45.304Z,7.63
2022-09-04T00:04:39.104Z,6.43
2022-09-04T00:07:18.401Z,6.10
2022-09-04T00:10:23.152Z,6.80
2022-09-04T00:13:08.903Z,7.03
2022-09-04T00:15:56.495Z,6.18
2022-09-04T00:18:55.876Z,6.72
2022-09-04T00:21:32.034Z,6.30
2022-09-04T00:24:02.495Z,6.78
2022-09-04T00:26:42.334Z,6.18
2022-09-04T00:29:26.175Z,7.10
2022-09-04T00:32:19.037Z,5.68
2022-09-04T00:35:09.543Z,6.72
2022-09-04T00:37:48.383Z,6.45
2022-09-04T00:40:40.750Z,5.65
2022-09-04T00:43:26.371Z,6.33
2022-09-04T00:46:30.176Z,7.55
2022-09-04T00:49:03.455Z,6.13
2022-09-04T00:51:30.937Z,7.85
2022-09-04T00:54:27.312Z,6.78
2022-09-04T00:57:44.484Z,7.40
2022-09-04T01:00:20.403Z,6.55
2022-09-04T01:03:03.932Z,6.60
2022-09-04T01:06:16.146Z,6.65
2022-09-04T01:08:56.146Z,6.40
2022-09-04T01:11:29.623Z,6.53
2022-09-04T01:14:18.285Z,6.50
2022-09-04T01:17:06.360Z,6.47
2022-09-04T01:19:57.626Z,7.25
2022-09-04T01:22:32.787Z,6.85
2022-09-04T01:25:18.323Z,7.90
2022-09-04T01:28:26.912Z,7.07
2022-09-04T01:31:16.702Z,7.95
2022-09-04T01:34:03.033Z,7.68
2022-09-04T01:36:55.180Z,7.85
2022-09-04T01:39:26.020Z,7.47
2022-09-04T01:42:08.944Z,7.22
2022-09-04T01:44:37.081Z,8.05
2022-09-04T01:47:35.678Z,7.75
2022-09-04T01:50:11.026Z,7.28
2022-09-04T01:52:59.050Z,7.75
2022-09-04T01:55:32.023Z,7.65
2022-09-04T01:58:09.384Z,7.40
2022-09-04T02:01:00.599Z,7.28
2022-09-04T02:03:47.990Z,7.05
2022-09-04T02:06:27.830Z,6.80
2022-09-04T02:09:18.121Z,6.97
2022-09-04T02:11:55.350Z,6.75
2022-09-04T02:14:34.057Z,7.85
2022-09-04T02:17:11.101Z,7.28
2022-09-04T02:19:44.537Z,7.72
2022-09-04T02:22:27.365Z,7.20
2022-09-04T02:25:11.023Z,7.75
2022-09-04T02:27:56.295Z,7.55
2022-09-04T02:30:24.160Z,7.25
2022-09-04T02:32:54.313Z,6.97
2022-09-04T02:35:48.903Z,7.82
2022-09-04T02:38:16.169Z,8.18
2022-09-04T02:40:43.382Z,7.00
2022-09-04T02:43:19.635Z,7.20
2022-09-04T02:46:05.746Z,6.97
2022-09-04T02:49:08.312Z,6.78
2022-09-04T02:51:41.426Z,8.30
2022-09-04T02:54:25.797Z,6.70
2022-09-04T02:57:38.322Z,7.53
2022-09-04T03:00:20.966Z,6.85
2022-09-04T03:03:17.093Z,7.28
2022-09-04T03:05:59.160Z,7.55
2022-09-04T03:08:36.941Z,7.85
2022-09-04T03:11:36.705Z,8.85
2022-09-04T03:14:15.864Z,7.70
2022-09-04T03:16:59.738Z,7.13
2022-09-04T03:19:42.313Z,6.25
2022-09-04T03:22:27.627Z,7.03
2022-09-04T03:25:26.592Z,8.27
2022-09-04T03:27:53.859Z,14.32
2022-09-04T03:30:21.282Z,15.05
2022-09-04T03:33:02.884Z,13.73
2022-09-04T03:35:49.796Z,13.05
2022-09-04T03:38:26.091Z,11.38
2022-09-04T03:41:26.206Z,11.70
2022-09-04T03:44:12.564Z,12.27
2022-09-04T03:46:53.163Z,18.10
2022-09-04T03:49:59.169Z,19.08
2022-09-04T03:52:54.101Z,19.15
2022-09-04T03:55:45.000Z,19.85
2022-09-04T03:58:15.159Z,19.90
2022-09-04T04:01:24.164Z,21.77
2022-09-04T04:04:15.798Z,19.23
2022-09-04T04:06:46.111Z,17.77
2022-09-04T04:09:16.163Z,17.95
2022-09-04T04:11:53.350Z,19.63
2022-09-04T04:14:38.407Z,23.58
2022-09-04T04:17:31.911Z,20.33
2022-09-04T04:20:25.702Z,18.00
2022-09-04T04:23:11.053Z,14.35
2022-09-04T04:25:52.656Z,16.65
2022-09-04T04:28:32.281Z,11.98
2022-09-04T04:31:34.716Z,10.63
2022-09-04T04:34:21.567Z,9.75
2022-09-04T04:37:38.968Z,9.30
2022-09-04T04:40:20.870Z,9.32
2022-09-04T04:43:14.908Z,9.35
2022-09-04T04:46:00.804Z,7.90
2022-09-04T04:48:49.552Z,8.25
2022-09-04T04:51:32.691Z,7.68
2022-09-04T04:54:18.071Z,7.65
2022-09-04T04:56:57.661Z,9.05
2022-09-04T05:00:06.669Z,7.35
2022-09-04T05:03:09.434Z,7.22
2022-09-04T05:05:56.010Z,6.47
2022-09-04T05:08:50.947Z,6.97
2022-09-04T05:11:30.049Z,7.50
2022-09-04T05:14:28.062Z,6.75
2022-09-04T05:17:40.783Z,8.55
2022-09-04T05:20:14.311Z,6.33
2022-09-04T05:22:44.303Z,6.25
2022-09-04T05:25:36.457Z,6.45
2022-09-04T05:28:09.817Z,6.60
2022-09-04T05:30:56.074Z,6.45
2022-09-04T05:33:55.204Z,6.43
2022-09-04T05:36:37.577Z,8.30
2022-09-04T05:39:30.401Z,8.73
2022-09-04T05:42:16.272Z,5.90
2022-09-04T05:44:56.577Z,6.03
2022-09-04T05:47:44.765Z,5.90
2022-09-04T05:50:44.796Z,5.72
2022-09-04T05:53:21.074Z,7.03
2022-09-04T05:56:13.418Z,5.90
2022-09-04T05:58:46.502Z,6.20
2022-09-04T06:01:31.921Z,5.72
2022-09-04T06:04:20.170Z,6.10
2022-09-04T06:07:02.921Z,5.55
2022-09-04T06:09:51.900Z,6.68
2022-09-04T06:12:36.679Z,6.05
2022-09-04T06:15:24.488Z,6.07
2022-09-04T06:18:36.186Z,6.18
2022-09-04T06:21:03.390Z,6.18
2022-09-04T06:23:51.816Z,6.57
2022-09-04T06:26:24.857Z,5.35
2022-09-04T06:29:05.281Z,6.13
2022-09-04T06:31:44.317Z,5.63
2022-09-04T06:34:51.369Z,6.05
2022-09-04T06:37:34.645Z,5.55
2022-09-04T06:40:37.606Z,5.25
2022-09-04T06:43:29.751Z,5.97
2022-09-04T06:46:19.992Z,6.32
2022-09-04T06:48:53.695Z,5.85
2022-09-04T06:51:27.233Z,6.35
2022-09-04T06:53:57.213Z,5.97
2022-09-04T06:56:36.498Z,6.72
2022-09-04T06:59:09.623Z,6.88
2022-09-04T07:02:00.504Z,6.22
2022-09-04T07:04:46.391Z,5.82
2022-09-04T07:07:39.865Z,5.97
2022-09-04T07:10:25.578Z,5.78
2022-09-04T07:12:58.766Z,5.82
2022-09-04T07:15:44.760Z,5.65
2022-09-04T07:18:38.414Z,5.88
2022-09-04T07:21:24.375Z,5.85
2022-09-04T07:24:07.967Z,5.65
2022-09-04T07:27:17.001Z,5.15
2022-09-04T07:30:04.583Z,5.95
2022-09-04T07:32:52.295Z,7.05
2022-09-04T07:35:42.075Z,5.65
2022-09-04T07:38:34.358Z,5.65
2022-09-04T07:41:15.310Z,5.40
2022-09-04T07:44:05.385Z,5.00
2022-09-04T07:46:46.958Z,5.82
2022-09-04T07:49:36.474Z,5.68
2022-09-04T07:52:26.196Z,5.63
2022-09-04T07:55:10.904Z,5.65
2022-09-04T07:57:38.128Z,5.72
2022-09-04T08:00:22.828Z,5.38
2022-09-04T08:03:13.558Z,5.60
2022-09-04T08:06:04.496Z,5.15
2022-09-04T08:09:09.223Z,5.25
2022-09-04T08:12:15.035Z,5.22
2022-09-04T08:14:55.633Z,5.28
2022-09-04T08:17:37.168Z,5.13
2022-09-04T08:20:23.046Z,4.85
2022-09-04T08:23:05.646Z,5.25
2022-09-04T08:26:14.143Z,5.75
2022-09-04T08:28:57.177Z,5.63
2022-09-04T08:34:43.653Z,5.70
2022-09-04T08:37:34.091Z,5.75
2022-09-04T08:40:11.456Z,5.72
2022-09-04T08:42:57.460Z,5.72
2022-09-04T08:45:58.561Z,5.72
2022-09-04T08:48:44.405Z,5.65
2022-09-04T08:51:40.126Z,5.35
2022-09-04T08:54:26.169Z,5.10
2022-09-04T08:57:05.841Z,5.07
2022-09-04T09:00:02.472Z,7.35
2022-09-04T09:02:38.828Z,5.28
2022-09-04T09:05:10.124Z,5.70
2022-09-04T09:07:58.015Z,5.00
2022-09-04T09:10:27.942Z,4.85
2022-09-04T09:13:16.754Z,4.85
2022-09-04T09:16:25.980Z,7.13
2022-09-04T09:19:10.249Z,5.00
2022-09-04T09:21:45.530Z,5.20
2022-09-04T09:24:46.431Z,5.13
2022-09-04T09:27:33.618Z,4.97
2022-09-04T09:30:06.210Z,4.63
2022-09-04T09:33:00.633Z,4.97
2022-09-04T09:36:14.851Z,5.32
2022-09-04T09:39:01.011Z,5.68
2022-09-04T09:41:53.437Z,5.13
2022-09-04T09:44:45.570Z,5.00
2022-09-04T09:47:42.774Z,5.32
2022-09-04T09:50:47.485Z,5.63
2022-09-04T09:53:47.453Z,5.50
2022-09-04T09:56:53.746Z,4.80
2022-09-04T09:59:39.632Z,4.53
2022-09-04T10:02:45.179Z,4.72
2022-09-04T10:05:44.914Z,5.50
2022-09-04T10:08:19.213Z,5.60
2022-09-04T10:11:42.205Z,4.65
2022-09-04T10:14:09.416Z,5.38
2022-09-04T10:17:14.315Z,4.55
2022-09-04T10:20:15.511Z,4.93
2022-09-04T10:23:05.664Z,4.80
2022-09-04T10:26:02.854Z,4.90
2022-09-04T10:28:52.426Z,4.93
2022-09-04T10:31:51.462Z,4.60
2022-09-04T10:34:56.842Z,4.63
2022-09-04T10:38:00.854Z,5.05
2022-09-04T10:40:50.662Z,5.05
2022-09-04T10:43:36.949Z,4.45
2022-09-04T10:46:30.147Z,5.05
2022-09-04T10:51:39.520Z,4.60
2022-09-04T10:54:28.552Z,5.05
2022-09-04T10:57:22.941Z,4.80
2022-09-04T10:59:59.109Z,4.95
2022-09-04T11:03:03.460Z,4.95
2022-09-04T11:05:35.025Z,4.60
2022-09-04T11:08:09.323Z,4.60
2022-09-04T11:11:05.639Z,4.68
2022-09-04T11:14:09.401Z,4.65
2022-09-04T11:16:50.935Z,4.47
2022-09-04T11:19:21.012Z,4.22
2022-09-04T11:22:25.812Z,4.70
2022-09-04T11:25:20.684Z,4.18
2022-09-04T11:27:51.950Z,4.43
2022-09-04T11:30:20.586Z,4.13
2022-09-04T11:33:06.698Z,4.57
2022-09-04T11:36:02.786Z,4.15
2022-09-04T11:38:43.753Z,4.05
2022-09-04T11:41:49.206Z,4.50
2022-09-04T11:44:46.322Z,4.47
2022-09-04T11:47:25.415Z,4.45
2022-09-04T11:50:16.449Z,4.88
2022-09-04T11:52:52.933Z,3.97
2022-09-04T11:55:41.522Z,4.85
2022-09-04T11:58:30.600Z,4.72
2022-09-04T12:01:27.977Z,4.63
2022-09-04T12:04:23.980Z,4.20
2022-09-04T12:07:13.461Z,4.50
2022-09-04T12:09:59.056Z,4.47
2022-09-04T12:12:41.780Z,4.00
2022-09-04T12:15:27.717Z,4.40
2022-09-04T12:18:12.342Z,4.88
2022-09-04T12:20:57.845Z,4.65
2022-09-04T12:23:27.789Z,4.00
2022-09-04T12:26:11.540Z,4.00
2022-09-04T12:28:47.623Z,4.45
2022-09-04T12:31:33.308Z,4.13
2022-09-04T12:34:19.352Z,4.18
2022-09-04T12:36:59.981Z,4.00
2022-09-04T12:39:49.175Z,4.40
2022-09-04T12:42:41.224Z,4.40
2022-09-04T12:45:11.411Z,4.20
2022-09-04T12:48:01.052Z,4.30
2022-09-04T12:51:01.506Z,4.57
2022-09-04T12:53:52.425Z,4.63
2022-09-04T12:56:42.252Z,4.32
2022-09-04T12:59:22.308Z,3.58
2022-09-04T13:02:13.864Z,4.18
2022-09-04T13:04:44.169Z,4.38
2022-09-04T13:07:34.413Z,4.20
2022-09-04T13:10:07.655Z,4.30
2022-09-04T13:12:58.966Z,3.90
2022-09-04T13:15:50.184Z,4.10
2022-09-04T13:18:31.645Z,4.13
2022-09-04T13:21:32.945Z,4.45
2022-09-04T13:24:44.584Z,4.00
2022-09-04T13:27:30.372Z,4.55
2022-09-04T13:30:24.563Z,3.80
2022-09-04T13:33:19.256Z,4.75
2022-09-04T13:36:16.610Z,4.20
2022-09-04T13:39:02.639Z,3.75
2022-09-04T13:41:51.853Z,4.65
2022-09-04T13:45:05.734Z,3.78
2022-09-04T13:48:20.110Z,4.13
2022-09-04T13:51:02.035Z,5.05
2022-09-04T13:53:51.958Z,3.72
2022-09-04T13:56:28.356Z,3.53
2022-09-04T13:59:08.564Z,3.83
2022-09-04T14:01:47.024Z,4.13
2022-09-04T14:04:26.705Z,3.83
2022-09-04T14:07:05.563Z,3.45
2022-09-04T14:09:39.848Z,3.95
2022-09-04T14:12:32.167Z,3.65
2022-09-04T14:15:20.459Z,3.63
2022-09-04T14:18:16.376Z,4.22
2022-09-04T14:20:52.419Z,4.30
2022-09-04T14:23:25.737Z,3.72
2022-09-04T14:26:13.350Z,3.72
2022-09-04T14:29:04.481Z,4.45
2022-09-04T14:31:46.728Z,3.80
2022-09-04T14:34:46.811Z,3.60
2022-09-04T14:37:24.454Z,4.20
2022-09-04T14:40:14.874Z,4.10
2022-09-04T14:45:38.208Z,4.55
2022-09-04T14:48:12.064Z,3.22
2022-09-04T14:50:51.957Z,3.50
2022-09-04T14:53:34.944Z,3.85
2022-09-04T14:58:41.924Z,4.22
2022-09-04T15:01:19.018Z,3.80
2022-09-04T15:03:49.225Z,4.47
2022-09-04T15:06:25.238Z,3.55
2022-09-04T15:08:54.164Z,3.67
2022-09-04T15:11:31.189Z,3.78
2022-09-04T15:14:07.953Z,3.47
2022-09-04T15:16:38.389Z,3.63
2022-09-04T15:19:46.868Z,3.40
2022-09-04T15:22:21.704Z,3.65
2022-09-04T15:25:05.905Z,3.75
2022-09-04T15:28:04.537Z,3.63
2022-09-04T15:30:41.573Z,3.45
2022-09-04T15:33:18.728Z,3.72
2022-09-04T15:36:04.561Z,3.70
2022-09-04T15:38:36.682Z,3.92
2022-09-04T15:41:24.310Z,4.30
2022-09-04T15:44:00.572Z,4.00
2022-09-04T15:47:07.221Z,3.50
2022-09-04T15:49:55.526Z,3.78
2022-09-04T15:52:46.417Z,3.70
2022-09-04T15:55:38.249Z,3.45
2022-09-04T15:58:19.870Z,3.38
2022-09-04T16:01:06.150Z,4.07
2022-09-04T16:03:53.110Z,3.47
2022-09-04T16:06:27.241Z,3.88
2022-09-04T16:09:11.928Z,3.38
2022-09-04T16:12:18.132Z,3.75
2022-09-04T16:15:00.211Z,3.90
2022-09-04T16:17:31.457Z,3.53
2022-09-04T16:20:06.418Z,3.63
2022-09-04T16:23:08.742Z,4.00
2022-09-04T16:25:43.198Z,3.55
2022-09-04T16:28:31.411Z,3.65
2022-09-04T16:31:02.111Z,3.45
2022-09-04T16:33:50.131Z,3.47
2022-09-04T16:36:23.022Z,3.60
2022-09-04T16:39:30.002Z,3.63
2022-09-04T16:42:20.898Z,3.45
2022-09-04T16:45:13.664Z,3.72
2022-09-04T16:47:40.961Z,3.97
2022-09-04T16:50:30.541Z,3.30
2022-09-04T16:53:23.412Z,3.72
2022-09-04T16:56:01.982Z,3.45
2022-09-04T16:58:39.986Z,3.22
2022-09-04T17:01:32.197Z,3.40
2022-09-04T17:04:30.106Z,3.42
2022-09-04T17:07:34.702Z,3.22
2022-09-04T17:10:18.754Z,3.45
2022-09-04T17:12:56.346Z,4.20
2022-09-04T17:15:53.104Z,3.20
2022-09-04T17:18:26.546Z,3.72
2022-09-04T17:27:58.799Z,3.80
2022-09-04T17:29:04.503Z,4.95
2022-09-04T17:29:08.242Z,3.50
2022-09-04T17:30:09.543Z,3.50
2022-09-04T17:35:18.807Z,3.92
2022-09-04T17:40:32.674Z,3.75
2022-09-04T17:40:54.608Z,3.28
2022-09-04T17:41:57.045Z,3.70
2022-09-04T17:44:51.082Z,3.85
2022-09-04T17:47:42.676Z,3.30
2022-09-04T17:50:16.536Z,3.35
2022-09-04T17:53:12.060Z,3.45
2022-09-04T17:55:56.243Z,4.75
2022-09-04T17:58:52.606Z,5.13
2022-09-04T18:01:33.765Z,3.67
2022-09-04T18:04:20.761Z,4.07
2022-09-04T18:07:29.954Z,3.33
2022-09-04T18:09:59.306Z,4.50
2022-09-04T18:12:51.767Z,4.80
2022-09-04T18:15:33.068Z,4.97
2022-09-04T18:18:11.697Z,4.68
2022-09-04T18:21:00.398Z,4.78
2022-09-04T18:23:51.323Z,4.15
2022-09-04T18:26:39.922Z,4.10
2022-09-04T18:30:02.078Z,4.43
2022-09-04T18:37:07.568Z,4.43
2022-09-04T18:37:26.560Z,4.10
2022-09-04T18:38:41.554Z,4.82
2022-09-04T18:47:46.556Z,4.35
2022-09-04T18:50:22.009Z,4.30
2022-09-04T18:50:39.229Z,6.55
2022-09-04T18:51:18.719Z,4.20
2022-09-04T18:53:50.268Z,4.47
2022-09-04T18:56:30.468Z,5.13
2022-09-04T18:59:10.729Z,5.55
2022-09-04T19:01:43.914Z,4.53
2022-09-04T19:04:44.827Z,5.57
2022-09-04T19:07:31.899Z,5.13
2022-09-04T19:10:17.535Z,6.95
2022-09-04T19:12:50.600Z,5.65
2022-09-04T19:15:36.617Z,5.75
2022-09-04T19:18:16.412Z,5.43
2022-09-04T19:20:49.883Z,5.50
2022-09-04T19:23:32.741Z,5.20
2022-09-04T19:26:08.083Z,5.88
2022-09-04T19:28:53.090Z,5.25
2022-09-04T19:31:32.673Z,6.25
2022-09-04T19:34:17.095Z,5.18
2022-09-04T19:37:13.526Z,4.80
2022-09-04T19:45:57.373Z,4.77
2022-09-04T19:46:11.161Z,7.38
2022-09-04T19:52:10.525Z,4.93
2022-09-04T19:53:31.209Z,4.30
2022-09-04T19:55:41.697Z,4.00
2022-09-04T19:58:11.198Z,4.82
2022-09-04T20:00:58.330Z,10.07
2022-09-04T20:03:33.981Z,5.45
2022-09-04T20:06:21.232Z,5.20
2022-09-04T20:09:08.697Z,5.78
2022-09-04T20:11:53.794Z,6.07
2022-09-04T20:14:47.227Z,5.32
2022-09-04T20:18:04.221Z,7.70
2022-09-04T20:20:56.285Z,4.97
2022-09-04T20:23:34.759Z,5.18
2022-09-04T20:26:07.846Z,4.95
2022-09-04T20:28:50.122Z,6.47
2022-09-04T20:31:35.298Z,4.65
2022-09-04T20:34:33.860Z,7.30
2022-09-04T20:37:28.355Z,6.15
2022-09-04T20:40:01.871Z,5.53
2022-09-04T20:42:38.815Z,5.20
2022-09-04T20:47:30.664Z,4.78
2022-09-04T20:52:43.429Z,5.85
2022-09-04T20:53:04.639Z,5.50
2022-09-04T20:54:23.318Z,4.70
2022-09-04T20:59:29.507Z,5.82
2022-09-04T21:03:08.613Z,6.50
2022-09-04T21:03:18.901Z,6.53
2022-09-04T21:06:07.746Z,5.00
2022-09-04T21:08:38.105Z,7.20
2022-09-04T21:11:39.446Z,5.53
2022-09-04T21:14:45.786Z,8.10
2022-09-04T21:17:35.118Z,5.88
2022-09-04T21:20:17.987Z,5.68
2022-09-04T21:23:15.919Z,4.43
2022-09-04T21:25:48.950Z,8.50
2022-09-04T21:28:39.001Z,5.05
2022-09-04T21:31:44.214Z,4.38
2022-09-04T21:34:56.460Z,6.95
2022-09-04T21:37:40.102Z,5.07
2022-09-04T21:40:50.256Z,4.57
2022-09-04T21:43:54.999Z,5.72
2022-09-04T21:46:47.034Z,4.77
2022-09-04T21:49:38.913Z,4.45
2022-09-04T21:52:11.073Z,6.38
2022-09-04T21:57:00.048Z,4.45
2022-09-04T22:02:30.709Z,5.93
2022-09-04T22:02:41.130Z,5.45
2022-09-04T22:04:19.064Z,5.53
2022-09-04T22:08:45.634Z,5.28
2022-09-04T22:13:30.042Z,4.28
2022-09-04T22:13:42.965Z,5.97
2022-09-04T22:16:01.077Z,5.20
2022-09-04T22:21:49.891Z,4.80
2022-09-04T22:24:24.491Z,4.00
2022-09-04T22:27:17.831Z,5.35
2022-09-04T22:30:01.735Z,4.32
2022-09-04T22:33:05.863Z,4.97
2022-09-04T22:36:01.080Z,4.13
2022-09-04T22:38:38.780Z,3.97
2022-09-04T22:41:43.341Z,4.88
2022-09-04T22:44:32.041Z,6.18
2022-09-04T22:47:31.301Z,5.88
2022-09-04T22:50:31.746Z,3.60
2022-09-04T22:56:22.747Z,3.72
2022-09-04T22:59:27.013Z,3.67
2022-09-04T23:02:13.485Z,5.50
2022-09-04T23:05:21.713Z,3.78
2022-09-04T23:13:43.836Z,4.07
2022-09-04T23:13:59.034Z,4.60
2022-09-04T23:14:24.234Z,4.10
2022-09-04T23:17:25.317Z,3.60
2022-09-04T23:26:31.400Z,3.45
2022-09-04T23:26:34.275Z,3.92
2022-09-04T23:26:45.849Z,5.68
2022-09-04T23:29:21.322Z,4.20
2022-09-04T23:32:27.496Z,4.53
2022-09-04T23:35:24.910Z,4.00
2022-09-04T23:38:29.594Z,5.55
2022-09-04T23:41:08.965Z,4.43
2022-09-04T23:43:51.984Z,4.07
2022-09-04T23:51:53.098Z,4.25
2022-09-04T23:54:41.844Z,3.88
2022-09-04T23:57:26.505Z,5.00
